sensor_id;sensor_type;location;lat;lon;timestamp;P1;durP1;ratioP1;P2;durP2;ratioP2
13560;SDS011;6852;51.686;5.314;2022-12-18T00:00:47;42.03;;;17.33;;
13560;SDS011;6852;51.686;5.314;2022-12-18T00:03:14;40.73;;;16.97;;
13560;SDS011;6852;51.686;5.314;2022-12-18T00:05:48;32.60;;;17.53;;
13560;SDS011;6852;51.686;5.314;2022-12-18T00:08:16;46.93;;;20.57;;
13560;SDS011;6852;51.686;5.314;2022-12-18T00:10:44;41.10;;;18.87;;
13560;SDS011;6852;51.686;5.314;2022-12-18T00:13:11;42.47;;;18.77;;
13560;SDS011;6852;51.686;5.314;2022-12-18T00:15:39;47.53;;;20.17;;
13560;SDS011;6852;51.686;5.314;2022-12-18T00:18:06;42.10;;;18.13;;
13560;SDS011;6852;51.686;5.314;2022-12-18T00:20:36;44.90;;;19.13;;
13560;SDS011;6852;51.686;5.314;2022-12-18T00:23:04;39.43;;;17.70;;
13560;SDS011;6852;51.686;5.314;2022-12-18T00:25:33;39.10;;;17.67;;
13560;SDS011;6852;51.686;5.314;2022-12-18T00:28:02;36.07;;;16.87;;
13560;SDS011;6852;51.686;5.314;2022-12-18T00:30:29;37.03;;;17.13;;
13560;SDS011;6852;51.686;5.314;2022-12-18T00:32:57;39.77;;;17.53;;
13560;SDS011;6852;51.686;5.314;2022-12-18T00:35:24;38.47;;;18.37;;
13560;SDS011;6852;51.686;5.314;2022-12-18T00:37:50;41.13;;;18.63;;
13560;SDS011;6852;51.686;5.314;2022-12-18T00:40:17;42.87;;;18.43;;
13560;SDS011;6852;51.686;5.314;2022-12-18T00:42:44;40.33;;;17.70;;
13560;SDS011;6852;51.686;5.314;2022-12-18T00:45:32;39.30;;;17.57;;
13560;SDS011;6852;51.686;5.314;2022-12-18T00:47:59;44.17;;;18.87;;
13560;SDS011;6852;51.686;5.314;2022-12-18T00:50:26;35.87;;;17.43;;
13560;SDS011;6852;51.686;5.314;2022-12-18T00:52:53;37.60;;;17.73;;
13560;SDS011;6852;51.686;5.314;2022-12-18T00:55:19;35.67;;;15.90;;
13560;SDS011;6852;51.686;5.314;2022-12-18T00:57:46;45.30;;;18.30;;
13560;SDS011;6852;51.686;5.314;2022-12-18T01:00:13;39.00;;;17.13;;
13560;SDS011;6852;51.686;5.314;2022-12-18T01:02:41;40.20;;;18.10;;
13560;SDS011;6852;51.686;5.314;2022-12-18T01:05:09;41.10;;;18.07;;
13560;SDS011;6852;51.686;5.314;2022-12-18T01:07:37;35.73;;;18.33;;
13560;SDS011;6852;51.686;5.314;2022-12-18T01:10:04;44.67;;;16.33;;
13560;SDS011;6852;51.686;5.314;2022-12-18T01:12:33;37.47;;;17.43;;
13560;SDS011;6852;51.686;5.314;2022-12-18T01:15:00;38.30;;;17.43;;
13560;SDS011;6852;51.686;5.314;2022-12-18T01:17:27;34.40;;;17.40;;
13560;SDS011;6852;51.686;5.314;2022-12-18T01:19:54;32.60;;;16.67;;
13560;SDS011;6852;51.686;5.314;2022-12-18T01:22:20;38.50;;;18.17;;
13560;SDS011;6852;51.686;5.314;2022-12-18T01:24:47;34.13;;;16.10;;
13560;SDS011;6852;51.686;5.314;2022-12-18T01:27:14;32.33;;;15.47;;
13560;SDS011;6852;51.686;5.314;2022-12-18T01:29:41;36.90;;;18.03;;
13560;SDS011;6852;51.686;5.314;2022-12-18T01:32:08;31.40;;;15.70;;
13560;SDS011;6852;51.686;5.314;2022-12-18T01:34:36;28.27;;;13.67;;
13560;SDS011;6852;51.686;5.314;2022-12-18T01:37:04;35.77;;;17.03;;
13560;SDS011;6852;51.686;5.314;2022-12-18T01:39:31;33.67;;;15.90;;
13560;SDS011;6852;51.686;5.314;2022-12-18T01:41:59;33.07;;;15.67;;
13560;SDS011;6852;51.686;5.314;2022-12-18T01:50:13;28.73;;;14.90;;
13560;SDS011;6852;51.686;5.314;2022-12-18T01:52:42;26.87;;;14.23;;
13560;SDS011;6852;51.686;5.314;2022-12-18T01:55:13;31.23;;;14.73;;
13560;SDS011;6852;51.686;5.314;2022-12-18T01:57:44;28.03;;;13.77;;
13560;SDS011;6852;51.686;5.314;2022-12-18T02:00:17;30.37;;;14.57;;
13560;SDS011;6852;51.686;5.314;2022-12-18T02:02:45;32.93;;;15.30;;
13560;SDS011;6852;51.686;5.314;2022-12-18T02:05:17;32.73;;;13.53;;
13560;SDS011;6852;51.686;5.314;2022-12-18T02:10:54;26.30;;;13.13;;
13560;SDS011;6852;51.686;5.314;2022-12-18T02:19:58;30.20;;;13.97;;
13560;SDS011;6852;51.686;5.314;2022-12-18T02:28:09;30.53;;;13.43;;
13560;SDS011;6852;51.686;5.314;2022-12-18T02:30:39;27.57;;;12.90;;
13560;SDS011;6852;51.686;5.314;2022-12-18T02:33:09;26.13;;;14.40;;
13560;SDS011;6852;51.686;5.314;2022-12-18T02:35:38;25.93;;;13.40;;
13560;SDS011;6852;51.686;5.314;2022-12-18T02:38:08;24.20;;;12.30;;
13560;SDS011;6852;51.686;5.314;2022-12-18T02:40:37;23.00;;;12.00;;
13560;SDS011;6852;51.686;5.314;2022-12-18T02:43:09;28.30;;;13.77;;
13560;SDS011;6852;51.686;5.314;2022-12-18T02:45:48;30.53;;;13.57;;
13560;SDS011;6852;51.686;5.314;2022-12-18T02:48:30;26.20;;;13.77;;
13560;SDS011;6852;51.686;5.314;2022-12-18T02:53:52;23.10;;;12.60;;
13560;SDS011;6852;51.686;5.314;2022-12-18T02:56:26;28.60;;;13.23;;
13560;SDS011;6852;51.686;5.314;2022-12-18T02:59:02;28.50;;;12.80;;
13560;SDS011;6852;51.686;5.314;2022-12-18T03:04:26;26.10;;;13.87;;
13560;SDS011;6852;51.686;5.314;2022-12-18T03:07:09;29.13;;;13.13;;
13560;SDS011;6852;51.686;5.314;2022-12-18T03:09:43;22.40;;;12.83;;
13560;SDS011;6852;51.686;5.314;2022-12-18T03:12:15;28.07;;;13.73;;
13560;SDS011;6852;51.686;5.314;2022-12-18T03:14:56;26.43;;;13.23;;
13560;SDS011;6852;51.686;5.314;2022-12-18T03:17:26;28.03;;;13.13;;
13560;SDS011;6852;51.686;5.314;2022-12-18T03:19:56;23.73;;;12.80;;
13560;SDS011;6852;51.686;5.314;2022-12-18T03:22:30;26.80;;;11.53;;
13560;SDS011;6852;51.686;5.314;2022-12-18T03:25:00;25.77;;;13.20;;
13560;SDS011;6852;51.686;5.314;2022-12-18T03:27:30;21.40;;;12.57;;
13560;SDS011;6852;51.686;5.314;2022-12-18T03:30:06;25.70;;;13.30;;
13560;SDS011;6852;51.686;5.314;2022-12-18T03:32:42;24.07;;;11.27;;
13560;SDS011;6852;51.686;5.314;2022-12-18T03:35:47;24.97;;;11.63;;
13560;SDS011;6852;51.686;5.314;2022-12-18T03:38:14;21.77;;;11.67;;
13560;SDS011;6852;51.686;5.314;2022-12-18T03:43:32;23.40;;;10.97;;
13560;SDS011;6852;51.686;5.314;2022-12-18T03:49:44;23.40;;;10.47;;
13560;SDS011;6852;51.686;5.314;2022-12-18T03:52:02;23.00;;;11.80;;
13560;SDS011;6852;51.686;5.314;2022-12-18T03:54:44;25.17;;;12.97;;
13560;SDS011;6852;51.686;5.314;2022-12-18T03:57:16;22.00;;;10.33;;
13560;SDS011;6852;51.686;5.314;2022-12-18T03:59:47;22.30;;;10.97;;
13560;SDS011;6852;51.686;5.314;2022-12-18T04:02:17;23.87;;;11.03;;
13560;SDS011;6852;51.686;5.314;2022-12-18T04:04:45;24.37;;;12.03;;
13560;SDS011;6852;51.686;5.314;2022-12-18T04:07:13;23.33;;;11.33;;
13560;SDS011;6852;51.686;5.314;2022-12-18T04:09:42;20.93;;;11.00;;
13560;SDS011;6852;51.686;5.314;2022-12-18T04:12:11;27.30;;;12.43;;
13560;SDS011;6852;51.686;5.314;2022-12-18T04:14:39;23.97;;;11.57;;
13560;SDS011;6852;51.686;5.314;2022-12-18T04:17:05;24.93;;;11.73;;
13560;SDS011;6852;51.686;5.314;2022-12-18T04:19:32;22.80;;;9.93;;
13560;SDS011;6852;51.686;5.314;2022-12-18T04:21:59;26.10;;;11.50;;
13560;SDS011;6852;51.686;5.314;2022-12-18T04:24:26;18.33;;;10.57;;
13560;SDS011;6852;51.686;5.314;2022-12-18T04:26:53;22.83;;;10.87;;
13560;SDS011;6852;51.686;5.314;2022-12-18T04:29:20;22.00;;;11.10;;
13560;SDS011;6852;51.686;5.314;2022-12-18T04:31:47;28.63;;;12.13;;
13560;SDS011;6852;51.686;5.314;2022-12-18T04:34:14;22.57;;;11.50;;
13560;SDS011;6852;51.686;5.314;2022-12-18T04:36:40;20.37;;;11.17;;
13560;SDS011;6852;51.686;5.314;2022-12-18T04:39:07;21.87;;;11.00;;
13560;SDS011;6852;51.686;5.314;2022-12-18T04:41:34;18.47;;;10.83;;
13560;SDS011;6852;51.686;5.314;2022-12-18T04:44:01;23.20;;;10.97;;
13560;SDS011;6852;51.686;5.314;2022-12-18T04:46:28;20.80;;;11.83;;
13560;SDS011;6852;51.686;5.314;2022-12-18T04:48:55;22.23;;;11.87;;
13560;SDS011;6852;51.686;5.314;2022-12-18T04:51:21;24.67;;;11.07;;
13560;SDS011;6852;51.686;5.314;2022-12-18T04:53:51;24.30;;;10.43;;
13560;SDS011;6852;51.686;5.314;2022-12-18T04:56:18;19.77;;;9.93;;
13560;SDS011;6852;51.686;5.314;2022-12-18T04:58:45;20.53;;;10.57;;
13560;SDS011;6852;51.686;5.314;2022-12-18T05:01:13;17.70;;;9.73;;
13560;SDS011;6852;51.686;5.314;2022-12-18T05:03:41;21.87;;;10.07;;
13560;SDS011;6852;51.686;5.314;2022-12-18T05:06:09;20.33;;;9.90;;
13560;SDS011;6852;51.686;5.314;2022-12-18T05:08:36;17.10;;;9.17;;
13560;SDS011;6852;51.686;5.314;2022-12-18T05:11:04;18.30;;;9.67;;
13560;SDS011;6852;51.686;5.314;2022-12-18T05:13:36;18.00;;;10.33;;
13560;SDS011;6852;51.686;5.314;2022-12-18T05:16:04;16.63;;;8.93;;
13560;SDS011;6852;51.686;5.314;2022-12-18T05:18:32;19.20;;;9.93;;
13560;SDS011;6852;51.686;5.314;2022-12-18T05:20:59;19.43;;;10.13;;
13560;SDS011;6852;51.686;5.314;2022-12-18T05:23:26;20.07;;;9.67;;
13560;SDS011;6852;51.686;5.314;2022-12-18T05:25:57;17.97;;;9.57;;
13560;SDS011;6852;51.686;5.314;2022-12-18T05:28:26;18.33;;;10.23;;
13560;SDS011;6852;51.686;5.314;2022-12-18T05:30:55;16.03;;;9.37;;
13560;SDS011;6852;51.686;5.314;2022-12-18T05:33:24;22.07;;;9.60;;
13560;SDS011;6852;51.686;5.314;2022-12-18T05:35:56;19.07;;;9.37;;
13560;SDS011;6852;51.686;5.314;2022-12-18T05:38:25;17.63;;;10.43;;
13560;SDS011;6852;51.686;5.314;2022-12-18T05:40:53;20.77;;;9.47;;
13560;SDS011;6852;51.686;5.314;2022-12-18T05:43:20;16.30;;;9.57;;
13560;SDS011;6852;51.686;5.314;2022-12-18T05:45:51;20.20;;;9.83;;
13560;SDS011;6852;51.686;5.314;2022-12-18T05:48:19;12.77;;;8.20;;
13560;SDS011;6852;51.686;5.314;2022-12-18T05:50:47;20.03;;;9.13;;
13560;SDS011;6852;51.686;5.314;2022-12-18T05:53:16;17.40;;;10.07;;
13560;SDS011;6852;51.686;5.314;2022-12-18T05:55:45;21.17;;;9.40;;
13560;SDS011;6852;51.686;5.314;2022-12-18T05:58:13;16.10;;;9.17;;
13560;SDS011;6852;51.686;5.314;2022-12-18T06:00:42;18.30;;;9.97;;
13560;SDS011;6852;51.686;5.314;2022-12-18T06:03:11;18.93;;;10.23;;
13560;SDS011;6852;51.686;5.314;2022-12-18T06:05:39;17.53;;;8.30;;
13560;SDS011;6852;51.686;5.314;2022-12-18T06:08:11;16.40;;;8.57;;
13560;SDS011;6852;51.686;5.314;2022-12-18T06:10:38;17.07;;;9.30;;
13560;SDS011;6852;51.686;5.314;2022-12-18T06:13:06;16.43;;;9.33;;
13560;SDS011;6852;51.686;5.314;2022-12-18T06:15:36;17.33;;;9.07;;
13560;SDS011;6852;51.686;5.314;2022-12-18T06:18:03;16.83;;;8.80;;
13560;SDS011;6852;51.686;5.314;2022-12-18T06:20:30;17.93;;;9.97;;
13560;SDS011;6852;51.686;5.314;2022-12-18T06:22:59;18.13;;;8.67;;
13560;SDS011;6852;51.686;5.314;2022-12-18T06:25:26;17.17;;;8.50;;
13560;SDS011;6852;51.686;5.314;2022-12-18T06:27:53;14.73;;;8.43;;
13560;SDS011;6852;51.686;5.314;2022-12-18T06:30:20;15.90;;;8.20;;
13560;SDS011;6852;51.686;5.314;2022-12-18T06:32:47;14.60;;;8.30;;
13560;SDS011;6852;51.686;5.314;2022-12-18T06:35:21;13.60;;;8.40;;
13560;SDS011;6852;51.686;5.314;2022-12-18T06:37:48;14.97;;;7.70;;
13560;SDS011;6852;51.686;5.314;2022-12-18T06:40:15;15.40;;;8.20;;
13560;SDS011;6852;51.686;5.314;2022-12-18T06:42:42;13.97;;;8.20;;
13560;SDS011;6852;51.686;5.314;2022-12-18T06:45:09;15.00;;;8.23;;
13560;SDS011;6852;51.686;5.314;2022-12-18T06:47:37;15.27;;;9.37;;
13560;SDS011;6852;51.686;5.314;2022-12-18T06:50:04;12.97;;;8.13;;
13560;SDS011;6852;51.686;5.314;2022-12-18T06:52:31;15.30;;;8.43;;
13560;SDS011;6852;51.686;5.314;2022-12-18T06:54:59;19.47;;;8.40;;
13560;SDS011;6852;51.686;5.314;2022-12-18T06:57:26;18.47;;;9.17;;
13560;SDS011;6852;51.686;5.314;2022-12-18T06:59:52;22.13;;;9.63;;
13560;SDS011;6852;51.686;5.314;2022-12-18T07:02:20;14.63;;;8.37;;
13560;SDS011;6852;51.686;5.314;2022-12-18T07:04:47;14.70;;;8.83;;
13560;SDS011;6852;51.686;5.314;2022-12-18T07:07:15;18.23;;;9.33;;
13560;SDS011;6852;51.686;5.314;2022-12-18T07:09:42;15.60;;;9.27;;
13560;SDS011;6852;51.686;5.314;2022-12-18T07:12:09;15.80;;;9.33;;
13560;SDS011;6852;51.686;5.314;2022-12-18T07:14:36;14.80;;;8.80;;
13560;SDS011;6852;51.686;5.314;2022-12-18T07:17:02;19.00;;;9.47;;
13560;SDS011;6852;51.686;5.314;2022-12-18T07:19:30;14.90;;;8.37;;
13560;SDS011;6852;51.686;5.314;2022-12-18T07:21:57;14.33;;;8.90;;
13560;SDS011;6852;51.686;5.314;2022-12-18T07:24:24;16.00;;;8.60;;
13560;SDS011;6852;51.686;5.314;2022-12-18T07:26:51;11.87;;;7.87;;
13560;SDS011;6852;51.686;5.314;2022-12-18T07:29:18;17.73;;;9.13;;
13560;SDS011;6852;51.686;5.314;2022-12-18T07:31:44;17.47;;;9.33;;
13560;SDS011;6852;51.686;5.314;2022-12-18T07:34:12;16.33;;;9.03;;
13560;SDS011;6852;51.686;5.314;2022-12-18T07:36:39;15.23;;;7.90;;
13560;SDS011;6852;51.686;5.314;2022-12-18T07:39:06;19.13;;;8.87;;
13560;SDS011;6852;51.686;5.314;2022-12-18T07:41:33;18.13;;;9.57;;
13560;SDS011;6852;51.686;5.314;2022-12-18T07:44:00;15.07;;;8.37;;
13560;SDS011;6852;51.686;5.314;2022-12-18T07:46:27;18.13;;;9.97;;
13560;SDS011;6852;51.686;5.314;2022-12-18T07:48:53;17.30;;;9.10;;
13560;SDS011;6852;51.686;5.314;2022-12-18T07:51:20;19.40;;;9.27;;
13560;SDS011;6852;51.686;5.314;2022-12-18T07:53:47;16.20;;;9.40;;
13560;SDS011;6852;51.686;5.314;2022-12-18T07:56:17;17.10;;;8.93;;
13560;SDS011;6852;51.686;5.314;2022-12-18T07:58:55;17.80;;;9.23;;
13560;SDS011;6852;51.686;5.314;2022-12-18T08:01:22;16.80;;;9.70;;
13560;SDS011;6852;51.686;5.314;2022-12-18T08:03:49;19.47;;;9.43;;
13560;SDS011;6852;51.686;5.314;2022-12-18T08:06:17;18.40;;;9.60;;
13560;SDS011;6852;51.686;5.314;2022-12-18T08:08:47;16.50;;;9.43;;
13560;SDS011;6852;51.686;5.314;2022-12-18T08:11:15;16.37;;;8.93;;
13560;SDS011;6852;51.686;5.314;2022-12-18T08:13:42;19.43;;;10.03;;
13560;SDS011;6852;51.686;5.314;2022-12-18T08:16:09;18.20;;;10.07;;
13560;SDS011;6852;51.686;5.314;2022-12-18T08:18:36;16.47;;;9.47;;
13560;SDS011;6852;51.686;5.314;2022-12-18T08:21:07;13.03;;;8.60;;
13560;SDS011;6852;51.686;5.314;2022-12-18T08:23:39;16.13;;;9.03;;
13560;SDS011;6852;51.686;5.314;2022-12-18T08:26:09;15.07;;;9.30;;
13560;SDS011;6852;51.686;5.314;2022-12-18T08:28:36;19.97;;;9.53;;
13560;SDS011;6852;51.686;5.314;2022-12-18T08:31:08;21.70;;;10.37;;
13560;SDS011;6852;51.686;5.314;2022-12-18T08:33:37;17.13;;;9.03;;
13560;SDS011;6852;51.686;5.314;2022-12-18T08:36:07;18.07;;;9.00;;
13560;SDS011;6852;51.686;5.314;2022-12-18T08:38:35;17.13;;;9.30;;
13560;SDS011;6852;51.686;5.314;2022-12-18T08:41:03;19.63;;;9.40;;
13560;SDS011;6852;51.686;5.314;2022-12-18T08:43:34;16.23;;;9.37;;
13560;SDS011;6852;51.686;5.314;2022-12-18T08:46:20;12.93;;;8.97;;
13560;SDS011;6852;51.686;5.314;2022-12-18T08:48:50;15.57;;;9.53;;
13560;SDS011;6852;51.686;5.314;2022-12-18T08:51:18;14.63;;;8.77;;
13560;SDS011;6852;51.686;5.314;2022-12-18T08:53:45;18.20;;;8.77;;
13560;SDS011;6852;51.686;5.314;2022-12-18T08:56:13;15.97;;;8.37;;
13560;SDS011;6852;51.686;5.314;2022-12-18T08:58:40;19.47;;;9.30;;
13560;SDS011;6852;51.686;5.314;2022-12-18T09:01:09;16.30;;;9.00;;
13560;SDS011;6852;51.686;5.314;2022-12-18T09:03:37;18.07;;;10.00;;
13560;SDS011;6852;51.686;5.314;2022-12-18T09:06:05;18.10;;;8.70;;
13560;SDS011;6852;51.686;5.314;2022-12-18T09:08:33;21.03;;;10.47;;
13560;SDS011;6852;51.686;5.314;2022-12-18T09:10:59;21.03;;;9.93;;
13560;SDS011;6852;51.686;5.314;2022-12-18T09:13:26;19.33;;;9.33;;
13560;SDS011;6852;51.686;5.314;2022-12-18T09:15:53;17.27;;;10.13;;
13560;SDS011;6852;51.686;5.314;2022-12-18T09:18:22;17.30;;;10.00;;
13560;SDS011;6852;51.686;5.314;2022-12-18T09:20:49;15.87;;;9.40;;
13560;SDS011;6852;51.686;5.314;2022-12-18T09:23:18;16.07;;;9.27;;
13560;SDS011;6852;51.686;5.314;2022-12-18T09:25:46;15.10;;;9.53;;
13560;SDS011;6852;51.686;5.314;2022-12-18T09:28:13;16.90;;;10.20;;
13560;SDS011;6852;51.686;5.314;2022-12-18T09:30:42;15.57;;;9.50;;
13560;SDS011;6852;51.686;5.314;2022-12-18T09:33:11;18.20;;;9.60;;
13560;SDS011;6852;51.686;5.314;2022-12-18T09:35:39;19.27;;;10.80;;
13560;SDS011;6852;51.686;5.314;2022-12-18T09:38:08;15.87;;;9.00;;
13560;SDS011;6852;51.686;5.314;2022-12-18T09:40:43;21.37;;;9.73;;
13560;SDS011;6852;51.686;5.314;2022-12-18T09:43:35;17.87;;;9.53;;
13560;SDS011;6852;51.686;5.314;2022-12-18T09:46:16;16.37;;;9.47;;
13560;SDS011;6852;51.686;5.314;2022-12-18T09:48:54;17.13;;;9.40;;
13560;SDS011;6852;51.686;5.314;2022-12-18T09:51:26;15.83;;;9.33;;
13560;SDS011;6852;51.686;5.314;2022-12-18T09:54:14;18.30;;;9.80;;
13560;SDS011;6852;51.686;5.314;2022-12-18T09:56:46;19.03;;;9.70;;
13560;SDS011;6852;51.686;5.314;2022-12-18T09:59:48;15.33;;;9.33;;
13560;SDS011;6852;51.686;5.314;2022-12-18T10:02:21;16.10;;;8.37;;
13560;SDS011;6852;51.686;5.314;2022-12-18T10:07:33;16.50;;;9.73;;
13560;SDS011;6852;51.686;5.314;2022-12-18T10:10:19;18.50;;;9.60;;
13560;SDS011;6852;51.686;5.314;2022-12-18T10:13:02;16.67;;;9.30;;
13560;SDS011;6852;51.686;5.314;2022-12-18T10:16:29;15.87;;;9.93;;
13560;SDS011;6852;51.686;5.314;2022-12-18T10:21:52;15.23;;;8.60;;
13560;SDS011;6852;51.686;5.314;2022-12-18T10:24:42;17.80;;;9.20;;
13560;SDS011;6852;51.686;5.314;2022-12-18T10:27:23;16.10;;;9.37;;
13560;SDS011;6852;51.686;5.314;2022-12-18T10:29:52;15.40;;;8.40;;
13560;SDS011;6852;51.686;5.314;2022-12-18T10:32:24;19.80;;;9.50;;
13560;SDS011;6852;51.686;5.314;2022-12-18T10:34:54;18.50;;;10.63;;
13560;SDS011;6852;51.686;5.314;2022-12-18T10:37:26;15.60;;;9.37;;
13560;SDS011;6852;51.686;5.314;2022-12-18T10:42:35;18.77;;;9.60;;
13560;SDS011;6852;51.686;5.314;2022-12-18T10:45:20;17.77;;;9.13;;
13560;SDS011;6852;51.686;5.314;2022-12-18T10:47:48;14.80;;;9.30;;
13560;SDS011;6852;51.686;5.314;2022-12-18T10:50:20;16.23;;;9.27;;
13560;SDS011;6852;51.686;5.314;2022-12-18T10:53:22;15.80;;;8.83;;
13560;SDS011;6852;51.686;5.314;2022-12-18T10:55:54;18.03;;;10.37;;
13560;SDS011;6852;51.686;5.314;2022-12-18T10:58:27;18.50;;;10.07;;
13560;SDS011;6852;51.686;5.314;2022-12-18T11:03:31;18.43;;;10.00;;
13560;SDS011;6852;51.686;5.314;2022-12-18T11:06:08;18.33;;;9.77;;
13560;SDS011;6852;51.686;5.314;2022-12-18T11:08:57;19.67;;;10.00;;
13560;SDS011;6852;51.686;5.314;2022-12-18T11:11:38;17.87;;;9.20;;
13560;SDS011;6852;51.686;5.314;2022-12-18T11:14:06;18.57;;;9.53;;
13560;SDS011;6852;51.686;5.314;2022-12-18T11:16:44;19.37;;;10.40;;
13560;SDS011;6852;51.686;5.314;2022-12-18T11:19:33;16.83;;;9.80;;
13560;SDS011;6852;51.686;5.314;2022-12-18T11:22:24;19.10;;;9.40;;
13560;SDS011;6852;51.686;5.314;2022-12-18T11:24:59;15.23;;;9.93;;
13560;SDS011;6852;51.686;5.314;2022-12-18T11:27:52;15.33;;;9.37;;
13560;SDS011;6852;51.686;5.314;2022-12-18T11:32:52;16.20;;;9.60;;
13560;SDS011;6852;51.686;5.314;2022-12-18T11:38:26;16.40;;;9.93;;
13560;SDS011;6852;51.686;5.314;2022-12-18T11:43:32;19.53;;;9.87;;
13560;SDS011;6852;51.686;5.314;2022-12-18T11:46:15;19.73;;;10.97;;
13560;SDS011;6852;51.686;5.314;2022-12-18T11:48:49;17.37;;;9.67;;
13560;SDS011;6852;51.686;5.314;2022-12-18T11:51:44;17.03;;;9.73;;
13560;SDS011;6852;51.686;5.314;2022-12-18T11:54:13;17.70;;;10.00;;
13560;SDS011;6852;51.686;5.314;2022-12-18T12:02:27;17.57;;;9.40;;
13560;SDS011;6852;51.686;5.314;2022-12-18T12:05:11;20.40;;;10.70;;
13560;SDS011;6852;51.686;5.314;2022-12-18T12:07:46;19.30;;;11.43;;
13560;SDS011;6852;51.686;5.314;2022-12-18T12:13:27;16.70;;;10.50;;
13560;SDS011;6852;51.686;5.314;2022-12-18T12:19:44;21.50;;;10.57;;
13560;SDS011;6852;51.686;5.314;2022-12-18T12:22:13;17.70;;;10.07;;
13560;SDS011;6852;51.686;5.314;2022-12-18T12:24:49;19.00;;;10.03;;
13560;SDS011;6852;51.686;5.314;2022-12-18T12:30:08;17.97;;;10.10;;
13560;SDS011;6852;51.686;5.314;2022-12-18T12:32:52;26.47;;;10.83;;
13560;SDS011;6852;51.686;5.314;2022-12-18T12:40:43;18.00;;;9.83;;
13560;SDS011;6852;51.686;5.314;2022-12-18T12:46:16;20.20;;;11.10;;
13560;SDS011;6852;51.686;5.314;2022-12-18T12:48:51;19.97;;;10.77;;
13560;SDS011;6852;51.686;5.314;2022-12-18T12:53:48;16.60;;;9.67;;
13560;SDS011;6852;51.686;5.314;2022-12-18T12:56:19;18.53;;;10.13;;
13560;SDS011;6852;51.686;5.314;2022-12-18T13:01:35;17.30;;;10.83;;
13560;SDS011;6852;51.686;5.314;2022-12-18T13:04:12;17.70;;;9.90;;
13560;SDS011;6852;51.686;5.314;2022-12-18T13:18:03;22.43;;;11.60;;
13560;SDS011;6852;51.686;5.314;2022-12-18T13:20:33;19.00;;;9.97;;
13560;SDS011;6852;51.686;5.314;2022-12-18T13:23:32;16.60;;;11.10;;
13560;SDS011;6852;51.686;5.314;2022-12-18T13:33:44;15.37;;;9.47;;
13560;SDS011;6852;51.686;5.314;2022-12-18T13:36:33;19.20;;;11.13;;
13560;SDS011;6852;51.686;5.314;2022-12-18T13:41:47;16.90;;;10.27;;
13560;SDS011;6852;51.686;5.314;2022-12-18T13:47:24;16.07;;;9.47;;
13560;SDS011;6852;51.686;5.314;2022-12-18T13:49:54;19.67;;;10.30;;
13560;SDS011;6852;51.686;5.314;2022-12-18T13:52:28;18.50;;;10.90;;
13560;SDS011;6852;51.686;5.314;2022-12-18T13:55:00;17.40;;;10.17;;
13560;SDS011;6852;51.686;5.314;2022-12-18T13:57:35;16.93;;;10.83;;
13560;SDS011;6852;51.686;5.314;2022-12-18T14:02:51;17.10;;;10.47;;
13560;SDS011;6852;51.686;5.314;2022-12-18T14:05:26;19.23;;;11.13;;
13560;SDS011;6852;51.686;5.314;2022-12-18T14:07:54;17.33;;;9.60;;
13560;SDS011;6852;51.686;5.314;2022-12-18T14:10:25;20.03;;;11.30;;
13560;SDS011;6852;51.686;5.314;2022-12-18T14:13:15;17.67;;;11.37;;
13560;SDS011;6852;51.686;5.314;2022-12-18T14:15:56;18.43;;;10.20;;
13560;SDS011;6852;51.686;5.314;2022-12-18T14:18:31;17.63;;;11.00;;
13560;SDS011;6852;51.686;5.314;2022-12-18T14:21:17;18.27;;;11.33;;
13560;SDS011;6852;51.686;5.314;2022-12-18T14:24:24;23.07;;;10.63;;
13560;SDS011;6852;51.686;5.314;2022-12-18T14:26:45;20.43;;;11.03;;
13560;SDS011;6852;51.686;5.314;2022-12-18T14:29:25;19.50;;;10.77;;
13560;SDS011;6852;51.686;5.314;2022-12-18T14:32:09;19.17;;;11.10;;
13560;SDS011;6852;51.686;5.314;2022-12-18T14:34:47;19.67;;;12.53;;
13560;SDS011;6852;51.686;5.314;2022-12-18T14:37:17;19.73;;;10.43;;
13560;SDS011;6852;51.686;5.314;2022-12-18T14:39:53;19.13;;;11.33;;
13560;SDS011;6852;51.686;5.314;2022-12-18T14:42:29;18.63;;;11.27;;
13560;SDS011;6852;51.686;5.314;2022-12-18T14:48:11;19.67;;;10.50;;
13560;SDS011;6852;51.686;5.314;2022-12-18T14:50:54;18.47;;;11.07;;
13560;SDS011;6852;51.686;5.314;2022-12-18T14:53:34;21.87;;;11.70;;
13560;SDS011;6852;51.686;5.314;2022-12-18T14:56:18;18.70;;;11.77;;
13560;SDS011;6852;51.686;5.314;2022-12-18T14:58:48;17.90;;;10.73;;
13560;SDS011;6852;51.686;5.314;2022-12-18T15:01:35;19.30;;;11.10;;
13560;SDS011;6852;51.686;5.314;2022-12-18T15:04:04;20.73;;;10.83;;
13560;SDS011;6852;51.686;5.314;2022-12-18T15:06:50;22.73;;;11.97;;
13560;SDS011;6852;51.686;5.314;2022-12-18T15:09:41;19.97;;;11.30;;
13560;SDS011;6852;51.686;5.314;2022-12-18T15:12:44;20.17;;;10.77;;
13560;SDS011;6852;51.686;5.314;2022-12-18T15:15:05;22.80;;;11.77;;
13560;SDS011;6852;51.686;5.314;2022-12-18T15:18:05;19.60;;;11.50;;
13560;SDS011;6852;51.686;5.314;2022-12-18T15:20:57;19.53;;;11.23;;
13560;SDS011;6852;51.686;5.314;2022-12-18T15:23:26;21.33;;;12.20;;
13560;SDS011;6852;51.686;5.314;2022-12-18T15:26:04;20.07;;;11.90;;
13560;SDS011;6852;51.686;5.314;2022-12-18T15:28:48;16.87;;;10.70;;
13560;SDS011;6852;51.686;5.314;2022-12-18T15:31:22;22.10;;;10.97;;
13560;SDS011;6852;51.686;5.314;2022-12-18T15:36:22;16.13;;;10.60;;
13560;SDS011;6852;51.686;5.314;2022-12-18T15:38:52;22.40;;;12.03;;
13560;SDS011;6852;51.686;5.314;2022-12-18T15:41:32;19.17;;;10.83;;
13560;SDS011;6852;51.686;5.314;2022-12-18T15:44:01;19.50;;;10.90;;
13560;SDS011;6852;51.686;5.314;2022-12-18T15:46:29;18.00;;;10.80;;
13560;SDS011;6852;51.686;5.314;2022-12-18T15:48:57;19.83;;;10.33;;
13560;SDS011;6852;51.686;5.314;2022-12-18T15:51:28;17.83;;;11.17;;
13560;SDS011;6852;51.686;5.314;2022-12-18T15:54:01;23.00;;;10.93;;
13560;SDS011;6852;51.686;5.314;2022-12-18T15:56:32;17.53;;;11.10;;
13560;SDS011;6852;51.686;5.314;2022-12-18T15:59:17;25.80;;;11.43;;
13560;SDS011;6852;51.686;5.314;2022-12-18T16:01:46;20.47;;;11.37;;
13560;SDS011;6852;51.686;5.314;2022-12-18T16:04:16;17.63;;;10.63;;
13560;SDS011;6852;51.686;5.314;2022-12-18T16:06:46;19.87;;;10.93;;
13560;SDS011;6852;51.686;5.314;2022-12-18T16:09:33;20.87;;;11.53;;
13560;SDS011;6852;51.686;5.314;2022-12-18T16:12:00;24.07;;;11.87;;
13560;SDS011;6852;51.686;5.314;2022-12-18T16:14:28;19.07;;;11.23;;
13560;SDS011;6852;51.686;5.314;2022-12-18T16:16:57;21.10;;;11.57;;
13560;SDS011;6852;51.686;5.314;2022-12-18T16:19:26;20.83;;;10.77;;
13560;SDS011;6852;51.686;5.314;2022-12-18T16:21:54;18.53;;;10.83;;
13560;SDS011;6852;51.686;5.314;2022-12-18T16:24:23;23.00;;;12.23;;
13560;SDS011;6852;51.686;5.314;2022-12-18T16:26:52;19.77;;;11.30;;
13560;SDS011;6852;51.686;5.314;2022-12-18T16:29:20;20.83;;;12.00;;
13560;SDS011;6852;51.686;5.314;2022-12-18T16:31:51;22.10;;;11.17;;
13560;SDS011;6852;51.686;5.314;2022-12-18T16:34:19;18.83;;;10.50;;
13560;SDS011;6852;51.686;5.314;2022-12-18T16:36:55;16.67;;;10.50;;
13560;SDS011;6852;51.686;5.314;2022-12-18T16:39:31;17.60;;;10.80;;
13560;SDS011;6852;51.686;5.314;2022-12-18T16:42:05;21.97;;;11.17;;
13560;SDS011;6852;51.686;5.314;2022-12-18T16:44:36;21.77;;;11.27;;
13560;SDS011;6852;51.686;5.314;2022-12-18T16:47:02;18.67;;;10.93;;
13560;SDS011;6852;51.686;5.314;2022-12-18T16:49:30;20.07;;;10.87;;
13560;SDS011;6852;51.686;5.314;2022-12-18T16:51:56;22.97;;;11.87;;
13560;SDS011;6852;51.686;5.314;2022-12-18T16:54:23;17.50;;;10.87;;
13560;SDS011;6852;51.686;5.314;2022-12-18T16:56:51;16.47;;;9.97;;
13560;SDS011;6852;51.686;5.314;2022-12-18T16:59:18;20.37;;;11.17;;
13560;SDS011;6852;51.686;5.314;2022-12-18T17:01:45;19.73;;;11.33;;